LEBA Airport Information

Runway Information
Runway 03 Length 7497 ft width 197 ft
Elevation 292 ft Threshold ft Heading 29
Runway 21 Length 7497 ft Width 197 ft
Elevation 304 ft Threshold 656 ft Heading 209
Airport Frequencies
Type CTAF Name CTAF Frequency 118.3 MHZ
Airport Navaids
Type VOR-DME Name Cordoba Frequency 112400 KHZ
Type NDB Name Cordoba Frequency 366 KHZ
Airport Weather Information & NOTAM
ADDS - METARS form results

(0518 UTC 03 December 2022)
Data provider http://aviationweather.gov/metar/data/
 
METAR text: LEBA 030500Z AUTO VRB01KT CAVOK 02/01 Q1009
Conditions at: LEBA (CORDOBA AIRPORT , ES) observed 0500 UTC 03 December 2022
Temperature: 2.0°C (36°F)
Dewpoint: 1.0°C (34°F) [RH = 93%]
Pressure (altimeter): 29.79 inches Hg (1009.0 mb)
Winds: variable direction winds at 1 MPH (1 knots; 0.5 m/s)
Visibility: 6 or more miles (10+ km)
Ceiling: ceiling and visibility are OK
Clouds: unknown
Weather: no significant weather observed at this time

METAR text: LEBA 030430Z AUTO 10002KT CAVOK 03/02 Q1009
Conditions at: LEBA (CORDOBA AIRPORT , ES) observed 0430 UTC 03 December 2022
Temperature: 3.0°C (37°F)
Dewpoint: 2.0°C (36°F) [RH = 93%]
Pressure (altimeter): 29.79 inches Hg (1009.0 mb)
Winds: from the E (100 degrees) at 2 MPH (2 knots; 1.0 m/s)
Visibility: 6 or more miles (10+ km)
Ceiling: ceiling and visibility are OK
Clouds: unknown
Weather: no significant weather observed at this time

Forecast for: LEBA (CORDOBA AIRPORT , ES)
Text: TAF LEBA 030200Z 0303/0403 08005KT 9999 FEW035 TX18/0315Z TN01/0307Z
Forecast period: 0300 UTC 03 December 2022 to 0300 UTC 04 December 2022
Forecast type: FROM: standard forecast or significant change
Winds: from the E (80 degrees) at 6 MPH (5 knots; 2.6 m/s)
Visibility: 6 or more miles (10+ km)
Ceiling: at least 12,000 feet AGL
Clouds: few clouds at 3500 feet AGL
Weather: no significant weather forecast for this period
Text: PROB40
Forecast period: 2200 UTC 03 December 2022 to 0300 UTC 04 December 2022
Forecast type: TEMPORARY: The following changes expected for less than half the time period
Visibility: 2.49 miles (4.01 km)
Ceiling: 1400 feet AGL
Clouds: broken clouds at 1400 feet AGL
Weather: RA  (moderate rain)